createdAt,value
2017-08-26T00:01:50.210Z,31.80
2017-08-26T00:04:18.364Z,31.80
2017-08-26T00:06:46.505Z,31.80
2017-08-26T00:09:14.631Z,31.80
2017-08-26T00:11:42.768Z,31.80
2017-08-26T00:14:10.893Z,31.80
2017-08-26T00:16:39.048Z,31.80
2017-08-26T00:19:07.511Z,31.80
2017-08-26T00:21:35.648Z,31.80
2017-08-26T00:24:03.801Z,31.80
2017-08-26T00:26:31.942Z,31.80
2017-08-26T00:29:00.076Z,31.80
2017-08-26T00:31:28.212Z,31.90
2017-08-26T00:33:56.352Z,31.80
2017-08-26T00:36:24.513Z,31.80
2017-08-26T00:38:52.733Z,32.00
2017-08-26T00:41:21.607Z,33.40
2017-08-26T00:43:49.767Z,33.20
2017-08-26T00:46:18.416Z,32.50
2017-08-26T00:48:46.644Z,32.20
2017-08-26T00:51:14.784Z,32.00
2017-08-26T00:53:42.904Z,32.40
2017-08-26T00:56:11.032Z,34.30
2017-08-26T00:58:39.154Z,34.60
2017-08-26T01:01:07.317Z,33.60
2017-08-26T01:03:35.468Z,33.00
2017-08-26T01:06:03.676Z,32.60
2017-08-26T01:08:31.834Z,32.10
2017-08-26T01:10:59.960Z,31.80
2017-08-26T01:13:28.089Z,31.60
2017-08-26T01:15:56.328Z,31.70
2017-08-26T01:18:24.489Z,32.00
2017-08-26T01:20:53.168Z,32.20
2017-08-26T01:23:21.341Z,32.20
2017-08-26T01:25:49.484Z,32.20
2017-08-26T01:28:17.624Z,32.20
2017-08-26T01:30:45.766Z,32.20
2017-08-26T01:33:14.568Z,32.20
2017-08-26T01:35:42.708Z,32.20
2017-08-26T01:38:10.836Z,32.20
2017-08-26T01:40:38.968Z,32.20
2017-08-26T01:43:07.115Z,32.20
2017-08-26T01:45:35.236Z,32.20
2017-08-26T01:48:03.401Z,32.20
2017-08-26T01:50:31.556Z,32.20
2017-08-26T01:52:59.726Z,32.20
2017-08-26T01:55:27.848Z,32.20
2017-08-26T01:57:56.001Z,32.20
2017-08-26T02:00:24.468Z,31.70
2017-08-26T02:02:52.857Z,32.20
2017-08-26T02:05:21.013Z,32.20
2017-08-26T02:07:49.140Z,32.10
2017-08-26T02:10:17.288Z,32.20
2017-08-26T02:12:45.466Z,32.20
2017-08-26T02:15:13.601Z,32.20
2017-08-26T02:17:41.728Z,32.20
2017-08-26T02:20:09.852Z,32.30
2017-08-26T02:22:37.975Z,32.30
2017-08-26T02:25:06.103Z,32.20
2017-08-26T02:27:34.265Z,32.30
2017-08-26T02:30:02.380Z,32.30
2017-08-26T02:32:30.516Z,32.40
2017-08-26T02:34:58.644Z,32.40
2017-08-26T02:37:26.789Z,32.30
2017-08-26T02:39:54.923Z,32.50
2017-08-26T02:42:23.048Z,32.40
2017-08-26T02:44:51.208Z,32.50
2017-08-26T02:47:19.343Z,32.30
2017-08-26T02:49:47.496Z,32.30
2017-08-26T02:52:15.725Z,32.30
2017-08-26T02:54:43.868Z,32.40
2017-08-26T02:57:12.074Z,32.70
2017-08-26T02:59:40.232Z,34.00
2017-08-26T03:02:08.384Z,33.50
2017-08-26T03:04:36.512Z,32.70
2017-08-26T03:07:04.646Z,32.40
2017-08-26T03:09:32.791Z,32.10
2017-08-26T03:12:00.956Z,31.80
2017-08-26T03:14:29.113Z,31.60
2017-08-26T03:16:57.237Z,31.70
2017-08-26T03:19:25.840Z,32.00
2017-08-26T03:21:53.998Z,32.20
2017-08-26T03:24:22.335Z,32.40
2017-08-26T03:26:50.884Z,32.40
2017-08-26T03:29:19.476Z,32.50
2017-08-26T03:31:47.613Z,32.50
2017-08-26T03:34:15.744Z,32.60
2017-08-26T03:36:43.864Z,32.60
2017-08-26T03:39:12.019Z,32.60
2017-08-26T03:41:40.152Z,32.60
2017-08-26T03:44:08.305Z,32.60
2017-08-26T03:46:36.432Z,32.60
2017-08-26T03:49:04.585Z,32.60
2017-08-26T03:51:32.864Z,32.60
2017-08-26T03:54:01.106Z,32.60
2017-08-26T03:56:29.300Z,32.60
2017-08-26T03:58:57.445Z,32.60
2017-08-26T04:01:25.589Z,32.60
2017-08-26T04:03:53.736Z,32.60
2017-08-26T04:06:21.864Z,32.50
2017-08-26T04:08:50.018Z,32.50
2017-08-26T04:11:18.171Z,32.50
2017-08-26T04:13:46.288Z,32.60
2017-08-26T04:16:14.423Z,32.50
2017-08-26T04:18:42.560Z,32.50
2017-08-26T04:21:10.708Z,32.60
2017-08-26T04:23:38.844Z,32.50
2017-08-26T04:26:06.977Z,32.50
2017-08-26T04:28:35.104Z,32.50
2017-08-26T04:31:03.616Z,32.60
2017-08-26T04:33:31.776Z,32.70
2017-08-26T04:35:59.911Z,32.60
2017-08-26T04:38:29.263Z,32.70
2017-08-26T04:40:57.418Z,32.70
2017-08-26T04:43:25.553Z,32.60
2017-08-26T04:45:54.470Z,32.50
2017-08-26T04:48:22.600Z,32.50
2017-08-26T04:50:50.778Z,32.20
2017-08-26T04:53:18.912Z,32.00
2017-08-26T04:55:47.381Z,31.90
2017-08-26T04:58:15.629Z,33.00
2017-08-26T05:00:43.775Z,33.00
2017-08-26T05:03:11.917Z,32.20
2017-08-26T05:05:40.056Z,31.90
2017-08-26T05:08:08.212Z,31.80
2017-08-26T05:10:36.474Z,31.90
2017-08-26T05:13:04.601Z,32.40
2017-08-26T05:15:32.720Z,32.60
2017-08-26T05:18:00.842Z,32.80
2017-08-26T05:20:28.992Z,32.50
2017-08-26T05:22:57.155Z,32.20
2017-08-26T05:25:26.047Z,32.20
2017-08-26T05:27:54.220Z,32.10
2017-08-26T05:30:22.356Z,32.20
2017-08-26T05:32:50.575Z,32.20
2017-08-26T05:35:19.387Z,32.30
2017-08-26T05:37:47.524Z,32.20
2017-08-26T05:40:15.764Z,32.20
2017-08-26T05:42:43.936Z,32.30
2017-08-26T05:45:12.085Z,32.30
2017-08-26T05:47:40.220Z,32.30
2017-08-26T05:50:08.342Z,32.10
2017-08-26T05:52:36.475Z,32.10
2017-08-26T05:55:04.616Z,32.00
2017-08-26T05:57:32.748Z,32.10
2017-08-26T06:00:00.900Z,32.20
2017-08-26T06:02:29.036Z,32.20
2017-08-26T06:04:57.160Z,32.20
2017-08-26T06:07:25.293Z,32.20
2017-08-26T06:09:53.412Z,32.20
2017-08-26T06:12:21.584Z,32.20
2017-08-26T06:14:49.727Z,32.30
2017-08-26T06:17:17.894Z,32.30
2017-08-26T06:19:46.016Z,32.20
2017-08-26T06:22:14.155Z,32.30
2017-08-26T06:24:42.268Z,32.40
